Terminal Aerodrome Forecast
Issued by NWS

Home | Current Version | Previous Version | Text Only | Print | Product List | Glossary On
Versions: 1 2 3 4 5 6 7 8 9 10 11 12 13 14 15 16 17 18 19 20 21 22 23 24 25 26
000
FTUS46 KSGX 302000 CCA
TAFSAN
TAF COR
KSAN 302031Z 3021/3124 29009KT P6SM FEW008 SCT250
     FM310200 VRB04KT P6SM FEW010 SCT200
     FM311000 VRB04KT P6SM BKN010
     FM311500 VRB04KT P6SM SCT015 SCT200
     FM311900 29009KT P6SM SCT200=

USA.gov is the U.S. government's official web portal to all federal, state and local government web resources and services.